Time;durP1;ratioP1;P1;durP2;ratioP2;P2;SDS_P1;SDS_P2;PMS_P1;PMS_P2;Temp;Humidity;BMP_temperature;BMP_pressure;BME280_temperature;BME280_humidity;BME280_pressure;Samples;Min_cycle;Max_cycle;Signal;HPM_P1;HPM_P2
2021/04/21 00:02:24;;;;;;;17.63;12.63;;;3.40;99.90;;;;;;5034213;28;20420;-76
2021/04/21 00:04:51;;;;;;;17.10;11.70;;;3.50;99.90;;;;;;5036892;28;20435;-76
2021/04/21 00:07:18;;;;;;;16.13;11.87;;;3.50;99.90;;;;;;5035826;28;20456;-76
2021/04/21 00:09:46;;;;;;;16.10;12.23;;;3.40;99.90;;;;;;5037203;28;20877;-76
2021/04/21 00:12:13;;;;;;;18.73;11.67;;;3.40;99.90;;;;;;5036962;28;20417;-76
2021/04/21 00:14:39;;;;;;;15.77;11.43;;;3.40;99.90;;;;;;5036535;28;20507;-76
2021/04/21 00:17:06;;;;;;;16.30;11.70;;;3.30;99.90;;;;;;5035571;28;20499;-76
2021/04/21 00:19:36;;;;;;;16.77;11.60;;;3.20;99.90;;;;;;5036559;28;20210;-76
2021/04/21 00:22:03;;;;;;;17.67;10.90;;;3.20;99.90;;;;;;5036555;28;20417;-76
2021/04/21 00:24:35;;;;;;;16.53;11.00;;;3.10;99.90;;;;;;5035117;28;20436;-75
2021/04/21 00:27:01;;;;;;;15.40;10.40;;;3.10;99.90;;;;;;5036539;28;20397;-76
2021/04/21 00:29:29;;;;;;;14.90;10.70;;;3.00;99.90;;;;;;5036398;28;20934;-76
2021/04/21 00:32:01;;;;;;;17.57;11.03;;;3.00;99.90;;;;;;5036406;28;20919;-75
2021/04/21 00:34:28;;;;;;;14.43;10.57;;;3.00;99.90;;;;;;5035010;28;20502;-76
2021/04/21 00:36:56;;;;;;;17.80;11.33;;;3.00;99.90;;;;;;5036418;28;20437;-76
2021/04/21 00:39:23;;;;;;;19.53;11.43;;;3.00;99.90;;;;;;5036210;28;20435;-76
2021/04/21 00:41:57;;;;;;;17.00;11.93;;;2.90;99.90;;;;;;5035211;28;20452;-76
2021/04/21 00:44:51;;;;;;;17.40;11.43;;;2.90;99.90;;;;;;5034885;28;20507;-76
2021/04/21 00:47:30;;;;;;;17.43;11.37;;;2.90;99.90;;;;;;5036247;28;20404;-76
2021/04/21 00:50:08;;;;;;;17.77;12.30;;;2.90;99.90;;;;;;5034958;28;20452;-76
2021/04/21 00:52:57;;;;;;;16.30;10.77;;;3.00;99.90;;;;;;5034869;28;20413;-76
2021/04/21 00:55:46;;;;;;;17.00;11.20;;;3.00;99.90;;;;;;5035900;28;20405;-76
2021/04/21 00:58:17;;;;;;;17.80;11.70;;;3.00;99.90;;;;;;5016424;28;20811;-76
2021/04/21 01:00:47;;;;;;;18.03;11.63;;;3.00;99.90;;;;;;5034408;28;20413;-76
2021/04/21 01:03:18;;;;;;;17.33;12.10;;;2.90;99.90;;;;;;5035399;28;20432;-76
2021/04/21 01:06:21;;;;;;;19.13;11.97;;;2.90;99.90;;;;;;5035851;28;20535;-76
2021/04/21 01:09:07;;;;;;;16.10;10.23;;;2.90;99.90;;;;;;5021932;28;20490;-76
2021/04/21 01:11:43;;;;;;;15.00;9.70;;;2.80;99.90;;;;;;5035367;28;20854;-75
2021/04/21 01:14:17;;;;;;;17.07;10.77;;;2.80;99.90;;;;;;5035268;28;20397;-76
2021/04/21 01:16:45;;;;;;;17.53;10.77;;;2.80;99.90;;;;;;5035724;28;20404;-76
2021/04/21 01:19:41;;;;;;;15.37;10.90;;;2.80;99.90;;;;;;5035393;28;20498;-76
2021/04/21 01:22:42;;;;;;;14.60;9.37;;;2.70;99.90;;;;;;5034326;28;20405;-76
2021/04/21 01:25:10;;;;;;;15.90;10.20;;;2.80;99.90;;;;;;5035468;28;20752;-76
2021/04/21 01:27:45;;;;;;;13.63;9.20;;;2.80;99.90;;;;;;5035791;28;20475;-76
2021/04/21 01:30:14;;;;;;;14.23;9.87;;;2.70;99.90;;;;;;5034171;28;20502;-76
2021/04/21 01:32:43;;;;;;;19.93;10.97;;;2.80;99.90;;;;;;5035529;28;20422;-76
2021/04/21 01:35:11;;;;;;;14.50;10.63;;;2.80;99.90;;;;;;5034030;28;20416;-76
2021/04/21 01:37:37;;;;;;;16.50;10.97;;;2.80;99.90;;;;;;5034168;28;20467;-76
2021/04/21 01:40:20;;;;;;;12.90;8.83;;;2.70;99.90;;;;;;5035696;28;20413;-77
2021/04/21 01:42:51;;;;;;;13.73;9.47;;;2.70;99.90;;;;;;5035898;28;20416;-76
2021/04/21 01:45:23;;;;;;;13.23;9.73;;;2.70;99.90;;;;;;5040618;28;20508;-76
2021/04/21 01:47:50;;;;;;;14.23;10.37;;;2.70;99.90;;;;;;5042182;28;20432;-76
2021/04/21 01:50:18;;;;;;;15.97;8.77;;;2.70;99.90;;;;;;5043613;28;20527;-76
2021/04/21 01:52:58;;;;;;;13.60;10.10;;;2.70;99.90;;;;;;5033756;28;20775;-76
2021/04/21 01:55:36;;;;;;;12.63;9.37;;;2.70;99.90;;;;;;5034733;28;20389;-76
2021/04/21 01:58:19;;;;;;;18.50;12.77;;;2.70;99.90;;;;;;5034855;28;20441;-76
2021/04/21 02:00:49;;;;;;;19.00;12.10;;;2.70;99.90;;;;;;5033654;28;20409;-76
2021/04/21 02:03:31;;;;;;;24.63;13.67;;;2.70;99.90;;;;;;5035183;28;20404;-76
2021/04/21 02:06:16;;;;;;;21.30;13.70;;;2.60;99.90;;;;;;5034676;28;20405;-76
2021/04/21 02:09:02;;;;;;;28.63;15.30;;;2.60;99.90;;;;;;5033331;28;20436;-76
2021/04/21 02:11:31;;;;;;;33.47;16.63;;;2.50;99.90;;;;;;5034717;28;20444;-76
2021/04/21 02:14:03;;;;;;;38.00;18.17;;;2.60;99.90;;;;;;5033219;28;20421;-76
2021/04/21 02:16:50;;;;;;;34.40;17.30;;;2.50;99.90;;;;;;5034350;28;20405;-76
2021/04/21 02:19:34;;;;;;;29.77;14.07;;;2.60;99.90;;;;;;5034202;28;20930;-76
2021/04/21 02:22:21;;;;;;;33.80;17.13;;;2.50;99.90;;;;;;5034310;28;20415;-76
2021/04/21 02:25:12;;;;;;;25.47;14.13;;;2.50;99.90;;;;;;5032309;28;20830;-76
2021/04/21 02:28:03;;;;;;;24.90;14.20;;;2.50;99.90;;;;;;5029341;28;20520;-76
2021/04/21 02:30:40;;;;;;;23.90;13.57;;;2.50;99.90;;;;;;5034160;28;20444;-77
2021/04/21 02:33:23;;;;;;;29.27;16.00;;;2.50;99.90;;;;;;5032972;28;20417;-76
2021/04/21 02:36:00;;;;;;;21.63;12.50;;;2.50;99.90;;;;;;5034034;28;20401;-76
2021/04/21 02:38:47;;;;;;;24.43;15.03;;;2.50;99.90;;;;;;5034191;28;20424;-76
2021/04/21 02:41:19;;;;;;;17.00;11.50;;;2.40;99.90;;;;;;5032819;28;20424;-76
2021/04/21 02:44:06;;;;;;;19.80;14.27;;;2.50;99.90;;;;;;5034410;28;20504;-78
2021/04/21 02:47:11;;;;;;;18.93;14.00;;;2.40;99.90;;;;;;5034716;28;20415;-76
2021/04/21 02:50:15;;;;;;;16.97;11.80;;;2.40;99.90;;;;;;5032566;28;20439;-76
2021/04/21 02:53:22;;;;;;;16.20;11.83;;;2.30;99.90;;;;;;5033968;28;20410;-76
2021/04/21 02:56:25;;;;;;;11.00;8.23;;;2.20;99.90;;;;;;5028034;28;20495;-76
2021/04/21 02:59:14;;;;;;;10.33;7.90;;;2.20;99.90;;;;;;5034315;28;20903;-76
2021/04/21 03:01:45;;;;;;;10.20;7.47;;;2.10;99.90;;;;;;5033673;28;20863;-76
2021/04/21 03:04:19;;;;;;;9.87;6.80;;;2.10;99.90;;;;;;5033435;28;20424;-76
2021/04/21 03:06:49;;;;;;;11.47;7.60;;;2.10;99.90;;;;;;5033676;28;20770;-76
2021/04/21 03:09:21;;;;;;;10.77;7.23;;;2.10;99.90;;;;;;5032367;28;20466;-76
2021/04/21 03:11:48;;;;;;;11.93;8.60;;;2.10;99.90;;;;;;5033531;28;20452;-76
2021/04/21 03:14:21;;;;;;;10.07;7.87;;;2.10;99.90;;;;;;5033525;28;20409;-76
2021/04/21 03:16:50;;;;;;;11.37;7.37;;;2.00;99.90;;;;;;5033807;28;20407;-76
2021/04/21 03:19:21;;;;;;;10.37;7.30;;;2.00;99.90;;;;;;5033325;28;20453;-76
2021/04/21 03:21:57;;;;;;;10.70;7.30;;;2.00;99.90;;;;;;5033418;28;20408;-76
2021/04/21 03:24:34;;;;;;;9.53;7.37;;;2.00;99.90;;;;;;5032140;28;20423;-76
2021/04/21 03:27:05;;;;;;;9.50;7.37;;;2.00;99.90;;;;;;5033629;28;20418;-76
2021/04/21 03:29:39;;;;;;;10.73;6.93;;;1.90;99.90;;;;;;5033389;28;20432;-76
2021/04/21 03:32:08;;;;;;;10.43;7.33;;;2.00;99.90;;;;;;5033451;28;20429;-76
2021/04/21 03:34:37;;;;;;;10.37;7.43;;;1.90;99.90;;;;;;5032207;28;20413;-76
2021/04/21 03:37:12;;;;;;;12.20;7.30;;;2.00;99.90;;;;;;5035691;28;20444;-76
2021/04/21 03:39:37;;;;;;;13.60;7.73;;;2.00;99.90;;;;;;5036172;28;20436;-77
2021/04/21 03:42:03;;;;;;;9.37;6.80;;;1.90;99.90;;;;;;5036190;28;20826;-76
2021/04/21 03:44:29;;;;;;;10.07;7.50;;;1.90;99.90;;;;;;5037750;28;20178;-76
2021/04/21 03:46:55;;;;;;;9.63;7.03;;;2.00;99.90;;;;;;5050451;28;20201;-76
2021/04/21 03:49:20;;;;;;;10.43;7.80;;;1.90;99.90;;;;;;5041225;28;20198;-76
2021/04/21 03:51:47;;;;;;;11.30;7.53;;;1.80;99.90;;;;;;5038841;28;20205;-77
2021/04/21 03:54:14;;;;;;;11.60;7.30;;;1.70;99.90;;;;;;5039397;28;20257;-77
2021/04/21 03:56:42;;;;;;;13.87;8.20;;;1.90;99.90;;;;;;5040117;28;20957;-76
2021/04/21 03:59:13;;;;;;;10.37;7.30;;;1.80;99.90;;;;;;5039718;28;20906;-77
2021/04/21 04:01:45;;;;;;;12.47;7.90;;;1.80;99.90;;;;;;5039690;28;20484;-78
2021/04/21 04:04:13;;;;;;;9.23;6.40;;;1.90;99.90;;;;;;5041063;28;20417;-78
2021/04/21 04:06:46;;;;;;;10.10;7.60;;;1.80;99.90;;;;;;5041686;28;20978;-78
2021/04/21 04:09:14;;;;;;;12.20;7.57;;;1.90;99.90;;;;;;5040835;28;20437;-77
2021/04/21 04:11:47;;;;;;;10.57;7.00;;;1.70;99.90;;;;;;5040945;28;20949;-78
2021/04/21 04:14:21;;;;;;;10.87;7.47;;;1.80;99.90;;;;;;5041260;28;20421;-78
2021/04/21 04:16:51;;;;;;;9.90;7.57;;;1.80;99.90;;;;;;5039951;28;20914;-77
2021/04/21 04:19:18;;;;;;;9.23;6.90;;;1.80;99.90;;;;;;5039709;28;20437;-78
2021/04/21 04:21:50;;;;;;;11.37;7.23;;;1.90;99.90;;;;;;5038829;28;20413;-78
2021/04/21 04:24:18;;;;;;;9.53;6.20;;;1.90;99.90;;;;;;5037189;28;20409;-78
2021/04/21 04:26:44;;;;;;;11.70;7.57;;;1.90;99.90;;;;;;5039210;28;20417;-77
2021/04/21 04:29:10;;;;;;;10.13;7.23;;;1.80;99.90;;;;;;5038794;28;20440;-78
2021/04/21 04:31:38;;;;;;;9.73;6.70;;;1.80;99.90;;;;;;5037849;28;20260;-78
2021/04/21 04:34:06;;;;;;;9.27;6.77;;;1.90;99.90;;;;;;5039133;28;20423;-77
2021/04/21 04:36:39;;;;;;;11.63;7.17;;;1.90;99.90;;;;;;5039478;28;20416;-77
2021/04/21 04:39:09;;;;;;;10.60;6.70;;;1.90;99.90;;;;;;5039229;28;20482;-78
2021/04/21 04:41:37;;;;;;;11.47;6.33;;;1.80;99.90;;;;;;5039819;28;20781;-77
2021/04/21 04:44:03;;;;;;;9.77;6.73;;;1.90;99.90;;;;;;5039143;28;20520;-78
2021/04/21 04:46:31;;;;;;;13.50;7.60;;;1.90;99.90;;;;;;5040246;28;20416;-78
2021/04/21 04:49:23;;;;;;;9.17;6.50;;;1.90;99.90;;;;;;5039925;28;20437;-78
2021/04/21 04:51:54;;;;;;;9.53;6.40;;;1.90;99.90;;;;;;5038708;28;20573;-78
2021/04/21 04:54:21;;;;;;;9.97;6.07;;;1.90;99.90;;;;;;5043868;28;20401;-78
2021/04/21 04:56:47;;;;;;;9.03;6.87;;;1.90;99.90;;;;;;5042097;28;20512;-79
2021/04/21 04:59:14;;;;;;;12.03;7.50;;;1.90;99.90;;;;;;5043637;28;20961;-78
2021/04/21 05:02:00;;;;;;;16.47;8.90;;;2.00;99.90;;;;;;5043781;28;20496;-78
2021/04/21 05:04:33;;;;;;;10.20;6.37;;;2.10;99.90;;;;;;5043486;28;20926;-78
2021/04/21 05:07:04;;;;;;;11.07;7.33;;;2.20;99.90;;;;;;5042825;28;20447;-78
2021/04/21 05:09:33;;;;;;;10.13;7.13;;;2.20;99.90;;;;;;5041439;28;20853;-78
2021/04/21 05:12:02;;;;;;;8.67;6.67;;;2.30;99.90;;;;;;5036440;28;20437;-78
2021/04/21 05:14:31;;;;;;;8.30;6.10;;;2.40;99.90;;;;;;5040492;28;20405;-78
2021/04/21 05:16:56;;;;;;;11.67;6.87;;;2.50;99.90;;;;;;5040201;28;20413;-78
2021/04/21 05:19:41;;;;;;;9.43;6.40;;;2.60;99.90;;;;;;5040076;28;20451;-78
2021/04/21 05:22:43;;;;;;;11.07;7.00;;;2.70;99.90;;;;;;5038903;28;20180;-78
2021/04/21 05:25:46;;;;;;;7.93;6.40;;;2.80;99.90;;;;;;5037826;28;20929;-77
2021/04/21 05:28:43;;;;;;;7.90;6.10;;;2.90;99.90;;;;;;5035711;28;20514;-77
2021/04/21 05:31:14;;;;;;;10.83;5.80;;;3.00;99.90;;;;;;5035824;28;20479;-77
2021/04/21 05:33:51;;;;;;;12.57;6.93;;;3.20;99.90;;;;;;5036443;28;20394;-77
2021/04/21 05:36:55;;;;;;;8.13;5.80;;;3.30;99.90;;;;;;5035538;28;20444;-76
2021/04/21 05:39:42;;;;;;;10.40;5.80;;;3.40;99.90;;;;;;5034078;28;20957;-77
2021/04/21 05:42:32;;;;;;;9.27;6.27;;;3.50;99.90;;;;;;5034144;28;20478;-78
2021/04/21 05:45:31;;;;;;;11.33;5.83;;;3.70;99.90;;;;;;5032868;28;20846;-77
2021/04/21 05:48:34;;;;;;;8.67;6.47;;;3.80;99.90;;;;;;5034387;28;20428;-77
2021/04/21 05:51:23;;;;;;;6.83;5.30;;;3.90;99.90;;;;;;5032821;28;20449;-77
2021/04/21 05:54:07;;;;;;;6.47;5.10;;;4.00;99.90;;;;;;5035163;28;20751;-77
2021/04/21 05:56:54;;;;;;;14.03;5.43;;;4.20;99.90;;;;;;5035430;28;20385;-77
2021/04/21 05:59:51;;;;;;;7.13;4.47;;;4.30;99.90;;;;;;5033112;28;20521;-77
2021/04/21 06:02:18;;;;;;;5.77;4.93;;;4.30;99.90;;;;;;5033991;28;20411;-78
2021/04/21 06:04:45;;;;;;;12.63;4.90;;;4.30;99.90;;;;;;5034837;28;20413;-77
2021/04/21 06:07:13;;;;;;;6.83;5.00;;;4.40;99.90;;;;;;5034977;28;20404;-77
2021/04/21 06:09:39;;;;;;;6.83;4.97;;;4.40;99.90;;;;;;5035053;28;20466;-77
2021/04/21 06:12:15;;;;;;;8.90;5.07;;;4.50;99.90;;;;;;5034717;28;20496;-77
2021/04/21 06:14:42;;;;;;;10.17;5.43;;;4.60;99.90;;;;;;5034243;28;20580;-77
2021/04/21 06:17:08;;;;;;;6.87;4.63;;;4.80;99.90;;;;;;5035305;28;20413;-78
2021/04/21 06:19:34;;;;;;;8.10;5.40;;;4.90;99.90;;;;;;5034533;28;20606;-77
2021/04/21 06:22:00;;;;;;;9.07;4.80;;;5.10;99.90;;;;;;5033264;28;20633;-77
2021/04/21 06:24:29;;;;;;;6.80;4.57;;;5.20;99.90;;;;;;5034494;28;20539;-77
2021/04/21 06:27:11;;;;;;;8.27;5.10;;;5.20;99.90;;;;;;5033559;28;20181;-77
2021/04/21 06:29:40;;;;;;;7.83;4.90;;;5.30;99.90;;;;;;5033380;28;20437;-77
2021/04/21 06:32:13;;;;;;;11.00;5.03;;;5.40;99.90;;;;;;5033413;28;20421;-77
2021/04/21 06:34:38;;;;;;;9.63;4.50;;;5.50;99.90;;;;;;5034884;28;20416;-77
2021/04/21 06:37:04;;;;;;;7.53;4.90;;;5.70;99.90;;;;;;5034575;28;20409;-77
2021/04/21 06:39:31;;;;;;;5.73;4.37;;;5.80;99.90;;;;;;5034513;28;20190;-77
2021/04/21 06:42:01;;;;;;;6.53;4.10;;;6.00;99.90;;;;;;5035030;28;20178;-77
2021/04/21 06:44:42;;;;;;;6.13;4.10;;;6.10;99.90;;;;;;5034773;28;20420;-77
2021/04/21 06:47:09;;;;;;;5.23;4.53;;;6.20;99.90;;;;;;5035610;28;20158;-77
2021/04/21 06:49:35;;;;;;;8.97;4.17;;;6.30;99.90;;;;;;5034578;28;20514;-78
2021/04/21 06:52:12;;;;;;;6.53;4.70;;;6.40;99.90;;;;;;5034969;28;20957;-77
2021/04/21 06:54:37;;;;;;;8.20;4.30;;;6.50;99.90;;;;;;5033283;28;20533;-77
2021/04/21 06:57:03;;;;;;;5.20;4.60;;;6.60;99.90;;;;;;5032969;28;20436;-77
2021/04/21 06:59:29;;;;;;;7.00;4.67;;;6.70;99.90;;;;;;5033331;28;20615;-77
2021/04/21 07:01:54;;;;;;;9.37;4.73;;;6.80;99.90;;;;;;5035209;28;20696;-77
2021/04/21 07:04:20;;;;;;;5.73;4.80;;;7.00;99.90;;;;;;5034622;28;20182;-77
2021/04/21 07:06:47;;;;;;;4.83;4.27;;;7.20;99.90;;;;;;5033860;28;20261;-77
2021/04/21 07:09:20;;;;;;;8.10;4.50;;;7.50;99.90;;;;;;5033487;28;20201;-77
2021/04/21 07:12:01;;;;;;;4.50;3.90;;;7.70;99.90;;;;;;5032390;28;20622;-77
2021/04/21 07:14:30;;;;;;;4.87;4.13;;;7.90;99.90;;;;;;5032445;28;20197;-77
2021/04/21 07:16:58;;;;;;;7.47;4.07;;;8.00;99.90;;;;;;5033916;28;20413;-77
2021/04/21 07:19:26;;;;;;;6.67;4.47;;;8.20;99.90;;;;;;5033649;28;20205;-77
2021/04/21 07:21:53;;;;;;;5.50;3.47;;;8.40;99.90;;;;;;5033833;28;20681;-77
2021/04/21 07:24:28;;;;;;;8.27;3.60;;;8.60;99.90;;;;;;5032359;28;20645;-77
2021/04/21 07:26:54;;;;;;;6.43;3.67;;;8.80;99.90;;;;;;5034275;28;20154;-78
2021/04/21 07:29:25;;;;;;;6.70;3.30;;;9.10;99.90;;;;;;5033545;28;20194;-77
2021/04/21 07:31:52;;;;;;;4.57;3.40;;;9.50;99.90;;;;;;5033768;28;20556;-78
2021/04/21 07:34:32;;;;;;;6.77;3.40;;;10.10;99.90;;;;;;5033626;28;20178;-77
2021/04/21 07:36:58;;;;;;;8.03;4.80;;;11.00;99.90;;;;;;5033980;28;20186;-78
2021/04/21 07:39:39;;;;;;;6.77;3.60;;;12.00;99.90;;;;;;5033817;28;20204;-78
2021/04/21 07:42:16;;;;;;;6.70;3.07;;;12.90;99.90;;;;;;5033730;28;20155;-78
2021/04/21 07:44:51;;;;;;;6.13;3.30;;;13.70;98.10;;;;;;5032610;28;20171;-78
2021/04/21 07:47:21;;;;;;;3.97;3.43;;;14.50;95.90;;;;;;5034662;28;20608;-78
2021/04/21 07:49:59;;;;;;;6.10;3.43;;;15.30;93.70;;;;;;5034842;28;20209;-78
2021/04/21 07:52:30;;;;;;;3.57;3.27;;;16.00;88.90;;;;;;5034524;28;20173;-78
2021/04/21 07:55:11;;;;;;;6.37;3.70;;;16.60;84.00;;;;;;5033808;28;20193;-76
2021/04/21 07:57:38;;;;;;;4.57;3.37;;;16.70;81.10;;;;;;5032197;28;20186;-76
2021/04/21 08:00:08;;;;;;;6.80;3.93;;;17.00;77.70;;;;;;5034889;28;20182;-78
2021/04/21 08:02:35;;;;;;;6.17;3.90;;;17.20;76.70;;;;;;5036926;28;20189;-78
2021/04/21 08:05:07;;;;;;;6.60;3.90;;;17.40;72.90;;;;;;5037192;28;20248;-78
2021/04/21 08:07:39;;;;;;;5.17;4.27;;;17.70;73.10;;;;;;5036336;28;20174;-78
2021/04/21 08:10:24;;;;;;;7.03;4.50;;;18.00;71.40;;;;;;5037262;28;20656;-78
2021/04/21 08:12:51;;;;;;;4.90;4.23;;;18.00;71.90;;;;;;5037654;28;20186;-78
2021/04/21 08:15:17;;;;;;;5.57;4.97;;;17.90;70.40;;;;;;5039871;28;20185;-79
2021/04/21 08:17:55;;;;;;;5.67;4.70;;;18.30;71.90;;;;;;5035561;28;20178;-76
2021/04/21 08:20:36;;;;;;;5.20;4.70;;;18.60;68.80;;;;;;5033834;28;20560;-77
2021/04/21 08:23:04;;;;;;;5.27;4.67;;;18.40;69.80;;;;;;5040883;28;20178;-77
2021/04/21 08:25:30;;;;;;;7.00;4.60;;;18.20;69.20;;;;;;5048934;28;20180;-77
2021/04/21 08:27:57;;;;;;;6.47;4.77;;;18.20;69.60;;;;;;5049037;28;20530;-77
2021/04/21 08:30:23;;;;;;;7.33;4.57;;;18.70;69.00;;;;;;5037907;28;20202;-77
2021/04/21 08:32:48;;;;;;;6.67;4.83;;;18.80;65.40;;;;;;5036452;28;20211;-77
2021/04/21 08:35:15;;;;;;;5.60;4.80;;;18.60;67.30;;;;;;5035061;28;20218;-77
2021/04/21 08:37:42;;;;;;;7.03;4.60;;;18.80;62.40;;;;;;5036442;28;20182;-77
2021/04/21 08:40:09;;;;;;;6.70;4.53;;;18.90;63.80;;;;;;5036283;28;20623;-77
2021/04/21 08:42:38;;;;;;;5.10;4.60;;;18.60;63.60;;;;;;5034845;28;20193;-77
2021/04/21 08:45:05;;;;;;;6.10;5.00;;;18.40;68.50;;;;;;5036159;28;20176;-77
2021/04/21 08:47:32;;;;;;;7.13;4.90;;;18.20;67.00;;;;;;5036468;28;20189;-77
2021/04/21 08:49:59;;;;;;;6.43;4.90;;;17.70;67.40;;;;;;5036257;28;20203;-77
2021/04/21 08:52:29;;;;;;;5.47;4.97;;;18.20;73.00;;;;;;5036193;28;20647;-77
2021/04/21 08:54:56;;;;;;;7.30;4.63;;;19.00;68.80;;;;;;5036159;28;20197;-77
2021/04/21 08:57:22;;;;;;;7.17;4.93;;;19.20;68.80;;;;;;5035072;28;20204;-77
2021/04/21 08:59:48;;;;;;;5.73;5.17;;;19.10;62.20;;;;;;5036740;28;20205;-77
2021/04/21 09:02:16;;;;;;;5.53;5.00;;;19.00;67.10;;;;;;5036206;28;20254;-77
2021/04/21 09:04:43;;;;;;;5.87;5.10;;;19.10;68.90;;;;;;5034933;28;20174;-77
2021/04/21 09:07:09;;;;;;;5.70;5.20;;;18.30;64.80;;;;;;5036490;28;20240;-77
2021/04/21 09:09:35;;;;;;;10.37;5.23;;;18.40;67.20;;;;;;5036521;28;20208;-77
2021/04/21 09:12:06;;;;;;;7.20;5.03;;;18.70;64.80;;;;;;5034857;28;20329;-77
2021/04/21 09:14:33;;;;;;;6.57;5.97;;;18.50;68.20;;;;;;5036367;28;20655;-77
2021/04/21 09:16:58;;;;;;;9.10;5.10;;;18.20;65.30;;;;;;5036495;28;20217;-77
2021/04/21 09:19:24;;;;;;;7.63;5.07;;;18.00;70.70;;;;;;5035278;28;20213;-77
2021/04/21 09:22:10;;;;;;;6.30;5.17;;;18.10;66.30;;;;;;5036832;28;20208;-77
2021/04/21 09:24:37;;;;;;;5.17;4.67;;;18.40;64.00;;;;;;5037165;28;20249;-78
2021/04/21 09:27:26;;;;;;;7.13;5.67;;;18.00;61.20;;;;;;5037100;28;20272;-78
2021/04/21 09:30:18;;;;;;;5.83;5.27;;;18.10;64.40;;;;;;5035989;28;20257;-77
2021/04/21 09:32:54;;;;;;;5.80;5.13;;;18.00;61.30;;;;;;5037890;28;20159;-78
2021/04/21 09:35:23;;;;;;;5.27;4.47;;;18.00;66.60;;;;;;5037997;28;20642;-78
2021/04/21 09:37:51;;;;;;;6.10;5.27;;;18.10;68.90;;;;;;5037317;28;20213;-78
2021/04/21 09:40:33;;;;;;;5.77;5.10;;;18.30;62.90;;;;;;5038850;28;20217;-78
2021/04/21 09:42:59;;;;;;;5.17;4.63;;;18.50;64.30;;;;;;5039206;28;20257;-78
2021/04/21 09:45:43;;;;;;;4.90;4.10;;;18.60;64.60;;;;;;5040493;28;20199;-77
2021/04/21 09:48:16;;;;;;;9.57;4.30;;;18.90;61.80;;;;;;5039739;28;20198;-77
2021/04/21 09:50:54;;;;;;;29.53;6.23;;;19.20;62.50;;;;;;5040574;28;20247;-78
2021/04/21 09:53:21;;;;;;;20.13;5.50;;;19.30;59.70;;;;;;5041132;28;20187;-77
2021/04/21 09:56:02;;;;;;;6.17;4.33;;;19.10;60.30;;;;;;5040165;28;20214;-77
2021/04/21 09:58:30;;;;;;;6.43;4.50;;;19.10;60.50;;;;;;5043095;28;20204;-77
2021/04/21 10:00:56;;;;;;;4.20;3.80;;;19.10;57.30;;;;;;5041632;28;20215;-77
2021/04/21 10:03:21;;;;;;;5.23;3.87;;;18.70;57.20;;;;;;5039294;28;20172;-78
2021/04/21 10:05:47;;;;;;;4.33;3.80;;;18.90;57.70;;;;;;5039663;28;20209;-78
2021/04/21 10:08:25;;;;;;;4.27;3.63;;;19.10;56.80;;;;;;5040320;28;20612;-79
2021/04/21 10:11:02;;;;;;;4.67;4.27;;;18.70;56.80;;;;;;5040714;28;20166;-77
2021/04/21 10:13:40;;;;;;;4.30;3.90;;;19.00;56.00;;;;;;5038544;28;20181;-77
2021/04/21 10:16:07;;;;;;;4.87;4.40;;;19.40;57.10;;;;;;5040337;28;20534;-77
2021/04/21 10:18:34;;;;;;;4.67;4.23;;;19.60;56.30;;;;;;5041523;28;20222;-78
2021/04/21 10:21:00;;;;;;;4.67;4.13;;;19.30;55.60;;;;;;5040516;28;20215;-77
2021/04/21 10:23:26;;;;;;;5.93;4.63;;;18.80;60.00;;;;;;5039726;28;20170;-78
2021/04/21 10:25:52;;;;;;;5.63;4.93;;;19.30;58.20;;;;;;5038377;28;20176;-78
2021/04/21 10:28:18;;;;;;;6.83;5.27;;;19.20;55.50;;;;;;5038404;28;20683;-78
2021/04/21 10:30:44;;;;;;;8.40;5.00;;;19.20;55.00;;;;;;5040965;28;20170;-78
2021/04/21 10:33:10;;;;;;;5.93;4.77;;;19.40;54.00;;;;;;5041328;28;20537;-77
2021/04/21 10:35:36;;;;;;;5.87;5.00;;;19.80;54.30;;;;;;5041401;28;20732;-79
2021/04/21 10:38:02;;;;;;;7.10;5.33;;;20.00;56.20;;;;;;5041875;28;20222;-78
2021/04/21 10:40:30;;;;;;;5.80;5.20;;;19.50;58.10;;;;;;5041709;28;20201;-78
2021/04/21 10:43:04;;;;;;;6.20;5.57;;;19.00;57.40;;;;;;5039349;28;20558;-78
2021/04/21 10:45:48;;;;;;;7.20;4.93;;;19.00;58.70;;;;;;5040492;28;20178;-78
2021/04/21 10:48:40;;;;;;;7.30;5.10;;;19.20;56.90;;;;;;5039312;28;20550;-77
2021/04/21 10:51:34;;;;;;;7.43;5.20;;;19.80;56.00;;;;;;5038157;28;20177;-78
2021/04/21 10:54:09;;;;;;;6.20;5.17;;;20.20;54.40;;;;;;5052923;28;20197;-76
2021/04/21 10:56:37;;;;;;;6.43;5.00;;;20.40;57.70;;;;;;5041211;28;20237;-77
2021/04/21 10:59:04;;;;;;;5.47;4.90;;;20.00;55.50;;;;;;5039926;28;20575;-78
2021/04/21 11:01:33;;;;;;;6.00;5.40;;;19.70;56.70;;;;;;5040864;28;20201;-78
2021/04/21 11:04:00;;;;;;;7.03;5.07;;;20.20;56.30;;;;;;5041612;28;20176;-77
2021/04/21 11:06:40;;;;;;;7.87;5.17;;;20.40;56.90;;;;;;5041444;28;20236;-78
2021/04/21 11:09:11;;;;;;;7.33;5.50;;;20.80;55.80;;;;;;5041659;28;20199;-78
2021/04/21 11:11:43;;;;;;;6.47;5.17;;;20.30;53.60;;;;;;5041361;28;20176;-78
2021/04/21 11:14:11;;;;;;;5.90;5.03;;;19.40;53.50;;;;;;5038900;28;20207;-77
2021/04/21 11:16:38;;;;;;;6.83;5.00;;;18.70;56.40;;;;;;5040791;28;20168;-78
2021/04/21 11:19:19;;;;;;;6.50;5.50;;;18.60;54.40;;;;;;5038902;28;20202;-78
2021/04/21 11:21:46;;;;;;;9.33;5.80;;;18.60;56.00;;;;;;5038801;28;20202;-78
2021/04/21 11:24:12;;;;;;;6.80;4.93;;;18.30;55.30;;;;;;5041169;28;20202;-78
2021/04/21 11:26:45;;;;;;;6.57;5.00;;;18.90;56.90;;;;;;5041661;28;20170;-78
2021/04/21 11:29:15;;;;;;;5.83;5.23;;;19.00;55.70;;;;;;5040829;28;20635;-78
2021/04/21 11:31:44;;;;;;;5.87;5.27;;;19.30;53.30;;;;;;5041703;28;20545;-78
2021/04/21 11:34:16;;;;;;;6.13;5.17;;;19.50;51.80;;;;;;5043986;28;20175;-78
2021/04/21 11:36:54;;;;;;;6.30;5.63;;;18.90;54.70;;;;;;5043491;28;20164;-78
2021/04/21 11:39:45;;;;;;;5.73;5.23;;;18.60;54.90;;;;;;5041850;28;20681;-78
2021/04/21 11:42:29;;;;;;;6.10;5.50;;;18.10;53.40;;;;;;5040576;28;20277;-77
2021/04/21 11:44:58;;;;;;;5.83;5.00;;;19.30;53.60;;;;;;5037311;28;20174;-77
2021/04/21 11:47:39;;;;;;;7.00;5.50;;;19.90;51.20;;;;;;5034792;28;20164;-78
2021/04/21 11:50:07;;;;;;;7.80;5.93;;;19.90;50.60;;;;;;5038879;28;20181;-78
2021/04/21 11:52:46;;;;;;;6.30;5.10;;;20.40;51.70;;;;;;5043556;28;20168;-78
2021/04/21 11:55:24;;;;;;;7.07;5.00;;;21.00;50.20;;;;;;5042994;28;20170;-78
2021/04/21 11:58:01;;;;;;;5.60;4.70;;;21.30;50.80;;;;;;5045570;28;20169;-79
2021/04/21 12:00:32;;;;;;;5.70;5.20;;;21.70;50.40;;;;;;5046545;28;20284;-78
2021/04/21 12:02:59;;;;;;;7.07;5.30;;;21.70;51.20;;;;;;5046297;28;20187;-78
2021/04/21 12:05:35;;;;;;;7.20;5.33;;;22.00;50.20;;;;;;5045492;28;20240;-78
2021/04/21 12:08:03;;;;;;;5.47;4.97;;;21.40;47.90;;;;;;5045300;28;20197;-78
2021/04/21 12:10:32;;;;;;;6.17;5.27;;;21.20;52.80;;;;;;5046078;28;20176;-78
2021/04/21 12:13:22;;;;;;;4.97;4.17;;;20.40;50.60;;;;;;5046638;28;20175;-78
2021/04/21 12:15:50;;;;;;;5.70;4.77;;;20.60;52.20;;;;;;5046535;28;20211;-78
2021/04/21 12:18:27;;;;;;;5.10;4.60;;;21.00;50.80;;;;;;5044110;28;20198;-78
2021/04/21 12:20:53;;;;;;;5.23;4.73;;;22.30;50.70;;;;;;5046245;28;20265;-77
2021/04/21 12:23:52;;;;;;;6.33;5.67;;;23.30;51.10;;;;;;5046462;28;20170;-78
2021/04/21 12:26:32;;;;;;;7.00;5.50;;;23.40;47.00;;;;;;5032296;28;20194;-78
2021/04/21 12:29:01;;;;;;;6.43;5.10;;;22.80;48.20;;;;;;5045390;28;20230;-78
2021/04/21 12:31:29;;;;;;;6.23;5.00;;;22.60;45.50;;;;;;5043090;28;20196;-77
2021/04/21 12:33:58;;;;;;;8.07;4.90;;;23.20;47.40;;;;;;5043624;28;20266;-78
2021/04/21 12:36:30;;;;;;;6.70;4.90;;;23.40;45.10;;;;;;5043757;28;20666;-77
2021/04/21 12:39:15;;;;;;;5.40;4.20;;;23.80;45.20;;;;;;5037571;28;20637;-76
2021/04/21 12:41:46;;;;;;;5.57;4.63;;;24.00;45.10;;;;;;5037676;28;20195;-77
2021/04/21 12:44:28;;;;;;;6.67;4.87;;;24.20;44.30;;;;;;5038620;28;20185;-77
2021/04/21 12:46:55;;;;;;;5.70;4.50;;;24.50;45.30;;;;;;5036831;28;20174;-77
2021/04/21 12:49:40;;;;;;;5.70;4.60;;;24.90;44.60;;;;;;5038010;28;20206;-77
2021/04/21 12:52:10;;;;;;;5.30;4.80;;;25.00;42.30;;;;;;5042304;28;20516;-77
2021/04/21 12:54:46;;;;;;;6.27;5.00;;;23.70;40.80;;;;;;5039200;28;20171;-77
2021/04/21 12:57:17;;;;;;;5.30;4.80;;;23.00;42.90;;;;;;5043323;28;20165;-78
2021/04/21 12:59:43;;;;;;;6.67;5.50;;;22.90;43.50;;;;;;5042231;28;20190;-78
2021/04/21 13:02:17;;;;;;;6.97;5.27;;;22.40;45.60;;;;;;5044907;28;20754;-78
2021/04/21 13:04:45;;;;;;;6.37;5.60;;;20.90;45.80;;;;;;5045784;28;20174;-78
2021/04/21 13:07:23;;;;;;;6.27;4.90;;;19.50;47.00;;;;;;5041778;28;20173;-77
2021/04/21 13:09:49;;;;;;;5.43;4.77;;;19.40;49.10;;;;;;5041728;28;20202;-78
2021/04/21 13:12:20;;;;;;;6.37;4.90;;;21.00;48.50;;;;;;5042069;28;20556;-78
2021/04/21 13:14:50;;;;;;;5.40;3.93;;;22.60;48.20;;;;;;5041978;28;20716;-77
2021/04/21 13:17:15;;;;;;;4.63;4.20;;;23.60;47.10;;;;;;5041633;28;20648;-78
2021/04/21 13:19:51;;;;;;;5.17;4.43;;;23.90;44.30;;;;;;5042778;28;20235;-78
2021/04/21 13:22:17;;;;;;;4.37;3.97;;;24.20;42.10;;;;;;5043865;28;20180;-78